sensor_id;sensor_type;location;lat;lon;timestamp;P1;durP1;ratioP1;P2;durP2;ratioP2
59308;SDS011;48433;53.016;-2.260;2023-04-01T00:00:53;11.88;;;7.90;;
59308;SDS011;48433;53.016;-2.260;2023-04-01T00:03:22;16.08;;;8.68;;
59308;SDS011;48433;53.016;-2.260;2023-04-01T00:05:50;11.75;;;7.72;;
59308;SDS011;48433;53.016;-2.260;2023-04-01T00:08:18;12.68;;;7.13;;
59308;SDS011;48433;53.016;-2.260;2023-04-01T00:10:46;12.02;;;7.38;;
59308;SDS011;48433;53.016;-2.260;2023-04-01T00:13:14;13.02;;;7.45;;
59308;SDS011;48433;53.016;-2.260;2023-04-01T00:15:42;13.20;;;8.88;;
59308;SDS011;48433;53.016;-2.260;2023-04-01T00:18:11;14.30;;;8.45;;
59308;SDS011;48433;53.016;-2.260;2023-04-01T00:20:38;14.02;;;7.63;;
59308;SDS011;48433;53.016;-2.260;2023-04-01T00:23:09;14.43;;;7.90;;
59308;SDS011;48433;53.016;-2.260;2023-04-01T00:25:37;13.38;;;7.30;;
59308;SDS011;48433;53.016;-2.260;2023-04-01T00:28:04;12.90;;;7.65;;
59308;SDS011;48433;53.016;-2.260;2023-04-01T00:30:32;11.90;;;7.30;;
59308;SDS011;48433;53.016;-2.260;2023-04-01T00:33:00;15.30;;;7.88;;
59308;SDS011;48433;53.016;-2.260;2023-04-01T00:35:28;14.23;;;7.82;;
59308;SDS011;48433;53.016;-2.260;2023-04-01T00:37:55;14.15;;;8.27;;
59308;SDS011;48433;53.016;-2.260;2023-04-01T00:40:26;11.93;;;7.55;;
59308;SDS011;48433;53.016;-2.260;2023-04-01T00:42:58;11.57;;;6.68;;
59308;SDS011;48433;53.016;-2.260;2023-04-01T00:45:32;12.15;;;7.53;;
59308;SDS011;48433;53.016;-2.260;2023-04-01T00:48:04;12.00;;;7.00;;
59308;SDS011;48433;53.016;-2.260;2023-04-01T00:50:36;10.27;;;5.85;;
59308;SDS011;48433;53.016;-2.260;2023-04-01T00:53:06;11.63;;;6.37;;
59308;SDS011;48433;53.016;-2.260;2023-04-01T00:55:35;12.13;;;6.15;;
59308;SDS011;48433;53.016;-2.260;2023-04-01T00:58:08;10.57;;;5.57;;
59308;SDS011;48433;53.016;-2.260;2023-04-01T01:00:40;12.88;;;6.25;;
59308;SDS011;48433;53.016;-2.260;2023-04-01T01:03:09;10.98;;;5.53;;
59308;SDS011;48433;53.016;-2.260;2023-04-01T01:06:40;13.25;;;6.07;;
59308;SDS011;48433;53.016;-2.260;2023-04-01T01:11:18;9.82;;;5.22;;
59308;SDS011;48433;53.016;-2.260;2023-04-01T01:14:31;12.32;;;5.22;;
59308;SDS011;48433;53.016;-2.260;2023-04-01T01:17:47;12.77;;;5.72;;
59308;SDS011;48433;53.016;-2.260;2023-04-01T01:20:03;10.82;;;5.78;;
59308;SDS011;48433;53.016;-2.260;2023-04-01T01:23:09;11.32;;;5.50;;
59308;SDS011;48433;53.016;-2.260;2023-04-01T01:25:55;10.35;;;5.22;;
59308;SDS011;48433;53.016;-2.260;2023-04-01T01:31:30;8.90;;;4.90;;
59308;SDS011;48433;53.016;-2.260;2023-04-01T01:36:57;7.97;;;4.13;;
59308;SDS011;48433;53.016;-2.260;2023-04-01T01:39:30;7.85;;;4.15;;
59308;SDS011;48433;53.016;-2.260;2023-04-01T01:42:01;6.93;;;3.40;;
59308;SDS011;48433;53.016;-2.260;2023-04-01T01:47:01;7.50;;;3.17;;
59308;SDS011;48433;53.016;-2.260;2023-04-01T01:49:30;9.52;;;4.00;;
59308;SDS011;48433;53.016;-2.260;2023-04-01T01:52:00;6.93;;;3.60;;
59308;SDS011;48433;53.016;-2.260;2023-04-01T01:54:28;7.03;;;4.13;;
59308;SDS011;48433;53.016;-2.260;2023-04-01T01:56:59;7.28;;;3.95;;
59308;SDS011;48433;53.016;-2.260;2023-04-01T01:59:35;8.23;;;3.78;;
59308;SDS011;48433;53.016;-2.260;2023-04-01T02:02:06;6.05;;;3.65;;
59308;SDS011;48433;53.016;-2.260;2023-04-01T02:04:38;6.55;;;3.75;;
59308;SDS011;48433;53.016;-2.260;2023-04-01T02:07:19;9.10;;;3.90;;
59308;SDS011;48433;53.016;-2.260;2023-04-01T02:09:55;6.28;;;3.15;;
59308;SDS011;48433;53.016;-2.260;2023-04-01T02:12:23;6.13;;;3.40;;
59308;SDS011;48433;53.016;-2.260;2023-04-01T02:14:52;9.00;;;3.20;;
59308;SDS011;48433;53.016;-2.260;2023-04-01T02:17:31;7.65;;;3.05;;
59308;SDS011;48433;53.016;-2.260;2023-04-01T02:20:04;5.78;;;2.80;;
59308;SDS011;48433;53.016;-2.260;2023-04-01T02:22:38;5.65;;;2.33;;
59308;SDS011;48433;53.016;-2.260;2023-04-01T02:25:15;8.48;;;3.10;;
59308;SDS011;48433;53.016;-2.260;2023-04-01T02:27:46;5.68;;;2.70;;
59308;SDS011;48433;53.016;-2.260;2023-04-01T02:30:14;6.60;;;2.50;;
59308;SDS011;48433;53.016;-2.260;2023-04-01T02:32:44;5.75;;;2.70;;
59308;SDS011;48433;53.016;-2.260;2023-04-01T02:35:13;4.68;;;2.42;;
59308;SDS011;48433;53.016;-2.260;2023-04-01T02:37:44;5.68;;;2.33;;
59308;SDS011;48433;53.016;-2.260;2023-04-01T02:40:15;4.03;;;1.95;;
59308;SDS011;48433;53.016;-2.260;2023-04-01T02:42:44;4.40;;;2.20;;
59308;SDS011;48433;53.016;-2.260;2023-04-01T02:45:13;4.97;;;2.20;;
59308;SDS011;48433;53.016;-2.260;2023-04-01T02:47:41;6.35;;;2.58;;
59308;SDS011;48433;53.016;-2.260;2023-04-01T02:50:09;4.95;;;2.47;;
59308;SDS011;48433;53.016;-2.260;2023-04-01T02:52:37;7.85;;;2.05;;
59308;SDS011;48433;53.016;-2.260;2023-04-01T02:55:05;6.70;;;2.75;;
59308;SDS011;48433;53.016;-2.260;2023-04-01T02:57:33;6.88;;;2.70;;
59308;SDS011;48433;53.016;-2.260;2023-04-01T03:00:01;6.50;;;2.80;;
59308;SDS011;48433;53.016;-2.260;2023-04-01T03:02:30;5.25;;;2.88;;
59308;SDS011;48433;53.016;-2.260;2023-04-01T03:04:57;6.28;;;2.88;;
59308;SDS011;48433;53.016;-2.260;2023-04-01T03:07:25;6.78;;;2.40;;
59308;SDS011;48433;53.016;-2.260;2023-04-01T03:09:53;7.90;;;2.70;;
59308;SDS011;48433;53.016;-2.260;2023-04-01T03:12:20;5.18;;;2.22;;
59308;SDS011;48433;53.016;-2.260;2023-04-01T03:14:50;4.63;;;2.28;;
59308;SDS011;48433;53.016;-2.260;2023-04-01T03:17:18;5.00;;;2.38;;
59308;SDS011;48433;53.016;-2.260;2023-04-01T03:19:46;6.18;;;3.05;;
59308;SDS011;48433;53.016;-2.260;2023-04-01T03:22:14;6.35;;;2.60;;
59308;SDS011;48433;53.016;-2.260;2023-04-01T03:24:42;5.20;;;2.70;;
59308;SDS011;48433;53.016;-2.260;2023-04-01T03:27:11;3.90;;;2.17;;
59308;SDS011;48433;53.016;-2.260;2023-04-01T03:29:39;4.72;;;1.95;;
59308;SDS011;48433;53.016;-2.260;2023-04-01T03:32:08;6.68;;;2.38;;
59308;SDS011;48433;53.016;-2.260;2023-04-01T03:34:35;6.03;;;2.22;;
59308;SDS011;48433;53.016;-2.260;2023-04-01T03:37:03;5.88;;;2.70;;
59308;SDS011;48433;53.016;-2.260;2023-04-01T03:39:31;6.22;;;2.25;;
59308;SDS011;48433;53.016;-2.260;2023-04-01T03:41:58;8.80;;;3.25;;
59308;SDS011;48433;53.016;-2.260;2023-04-01T03:44:30;8.50;;;2.40;;
59308;SDS011;48433;53.016;-2.260;2023-04-01T03:46:59;8.20;;;2.80;;
59308;SDS011;48433;53.016;-2.260;2023-04-01T03:49:28;6.03;;;2.80;;
59308;SDS011;48433;53.016;-2.260;2023-04-01T03:51:55;5.75;;;2.72;;
59308;SDS011;48433;53.016;-2.260;2023-04-01T03:54:23;8.07;;;3.38;;
59308;SDS011;48433;53.016;-2.260;2023-04-01T03:56:51;5.75;;;2.70;;
59308;SDS011;48433;53.016;-2.260;2023-04-01T03:59:20;6.65;;;2.95;;
59308;SDS011;48433;53.016;-2.260;2023-04-01T04:01:48;6.15;;;2.90;;
59308;SDS011;48433;53.016;-2.260;2023-04-01T04:04:15;8.88;;;3.72;;
59308;SDS011;48433;53.016;-2.260;2023-04-01T04:06:43;7.85;;;3.50;;
59308;SDS011;48433;53.016;-2.260;2023-04-01T04:09:11;6.90;;;3.05;;
59308;SDS011;48433;53.016;-2.260;2023-04-01T04:11:39;6.32;;;2.85;;
59308;SDS011;48433;53.016;-2.260;2023-04-01T04:14:06;6.95;;;2.92;;
59308;SDS011;48433;53.016;-2.260;2023-04-01T04:16:35;6.03;;;2.70;;
59308;SDS011;48433;53.016;-2.260;2023-04-01T04:19:04;8.93;;;3.05;;
59308;SDS011;48433;53.016;-2.260;2023-04-01T04:21:32;7.30;;;2.58;;
59308;SDS011;48433;53.016;-2.260;2023-04-01T04:24:00;6.55;;;2.47;;
59308;SDS011;48433;53.016;-2.260;2023-04-01T04:26:47;5.97;;;2.72;;
59308;SDS011;48433;53.016;-2.260;2023-04-01T04:29:15;5.57;;;2.30;;
59308;SDS011;48433;53.016;-2.260;2023-04-01T04:31:43;6.95;;;2.67;;
59308;SDS011;48433;53.016;-2.260;2023-04-01T04:34:11;5.43;;;2.40;;
59308;SDS011;48433;53.016;-2.260;2023-04-01T04:36:38;7.40;;;2.80;;
59308;SDS011;48433;53.016;-2.260;2023-04-01T04:39:06;6.97;;;3.20;;
59308;SDS011;48433;53.016;-2.260;2023-04-01T04:41:37;11.90;;;3.42;;
59308;SDS011;48433;53.016;-2.260;2023-04-01T04:44:05;7.65;;;2.92;;
59308;SDS011;48433;53.016;-2.260;2023-04-01T04:46:33;6.45;;;3.55;;
59308;SDS011;48433;53.016;-2.260;2023-04-01T04:49:10;7.32;;;3.30;;
59308;SDS011;48433;53.016;-2.260;2023-04-01T04:51:38;13.80;;;3.60;;
59308;SDS011;48433;53.016;-2.260;2023-04-01T04:54:06;7.90;;;4.00;;
59308;SDS011;48433;53.016;-2.260;2023-04-01T04:56:53;8.82;;;4.43;;
59308;SDS011;48433;53.016;-2.260;2023-04-01T04:59:23;7.72;;;3.58;;
59308;SDS011;48433;53.016;-2.260;2023-04-01T05:01:58;9.27;;;4.18;;
59308;SDS011;48433;53.016;-2.260;2023-04-01T05:04:27;8.18;;;4.03;;
59308;SDS011;48433;53.016;-2.260;2023-04-01T05:06:55;9.95;;;3.92;;
59308;SDS011;48433;53.016;-2.260;2023-04-01T05:09:23;8.45;;;3.75;;
59308;SDS011;48433;53.016;-2.260;2023-04-01T05:11:51;10.65;;;4.60;;
59308;SDS011;48433;53.016;-2.260;2023-04-01T05:14:19;7.05;;;3.92;;
59308;SDS011;48433;53.016;-2.260;2023-04-01T05:17:08;8.88;;;3.60;;
59308;SDS011;48433;53.016;-2.260;2023-04-01T05:19:37;7.18;;;3.80;;
59308;SDS011;48433;53.016;-2.260;2023-04-01T05:22:06;8.75;;;3.45;;
59308;SDS011;48433;53.016;-2.260;2023-04-01T05:24:35;8.88;;;4.40;;
59308;SDS011;48433;53.016;-2.260;2023-04-01T05:27:03;8.38;;;4.13;;
59308;SDS011;48433;53.016;-2.260;2023-04-01T05:29:31;9.18;;;3.97;;
59308;SDS011;48433;53.016;-2.260;2023-04-01T05:32:04;7.13;;;3.30;;
59308;SDS011;48433;53.016;-2.260;2023-04-01T05:34:32;8.60;;;3.65;;
59308;SDS011;48433;53.016;-2.260;2023-04-01T05:37:00;7.05;;;3.45;;
59308;SDS011;48433;53.016;-2.260;2023-04-01T05:39:28;7.20;;;3.60;;
59308;SDS011;48433;53.016;-2.260;2023-04-01T05:41:56;8.65;;;3.78;;
59308;SDS011;48433;53.016;-2.260;2023-04-01T05:44:23;9.18;;;3.90;;
59308;SDS011;48433;53.016;-2.260;2023-04-01T05:47:14;10.60;;;4.03;;
59308;SDS011;48433;53.016;-2.260;2023-04-01T05:49:42;9.32;;;4.10;;
59308;SDS011;48433;53.016;-2.260;2023-04-01T05:52:10;7.57;;;4.30;;
59308;SDS011;48433;53.016;-2.260;2023-04-01T05:54:38;8.15;;;4.25;;
59308;SDS011;48433;53.016;-2.260;2023-04-01T05:57:05;7.28;;;3.90;;
59308;SDS011;48433;53.016;-2.260;2023-04-01T05:59:33;8.00;;;4.18;;
59308;SDS011;48433;53.016;-2.260;2023-04-01T06:02:02;10.95;;;4.53;;
59308;SDS011;48433;53.016;-2.260;2023-04-01T06:04:32;9.40;;;5.35;;
59308;SDS011;48433;53.016;-2.260;2023-04-01T06:07:13;7.75;;;4.07;;
59308;SDS011;48433;53.016;-2.260;2023-04-01T06:09:43;8.65;;;4.50;;
59308;SDS011;48433;53.016;-2.260;2023-04-01T06:18:04;7.20;;;4.00;;
59308;SDS011;48433;53.016;-2.260;2023-04-01T06:21:03;10.45;;;4.63;;
59308;SDS011;48433;53.016;-2.260;2023-04-01T06:38:33;9.75;;;5.13;;
59308;SDS011;48433;53.016;-2.260;2023-04-01T06:41:14;8.63;;;3.92;;
59308;SDS011;48433;53.016;-2.260;2023-04-01T06:53:20;9.20;;;4.03;;
59308;SDS011;48433;53.016;-2.260;2023-04-01T06:56:32;9.13;;;4.88;;
59308;SDS011;48433;53.016;-2.260;2023-04-01T06:59:22;10.25;;;4.97;;
59308;SDS011;48433;53.016;-2.260;2023-04-01T07:01:55;9.63;;;5.03;;
59308;SDS011;48433;53.016;-2.260;2023-04-01T07:04:43;8.52;;;5.00;;
59308;SDS011;48433;53.016;-2.260;2023-04-01T07:07:35;10.50;;;4.80;;
59308;SDS011;48433;53.016;-2.260;2023-04-01T07:10:20;8.00;;;4.50;;
59308;SDS011;48433;53.016;-2.260;2023-04-01T07:13:28;10.93;;;3.97;;
59308;SDS011;48433;53.016;-2.260;2023-04-01T07:19:05;11.77;;;3.78;;
59308;SDS011;48433;53.016;-2.260;2023-04-01T07:22:03;8.48;;;3.40;;
59308;SDS011;48433;53.016;-2.260;2023-04-01T07:24:53;7.45;;;2.80;;
59308;SDS011;48433;53.016;-2.260;2023-04-01T07:27:22;6.57;;;3.08;;
59308;SDS011;48433;53.016;-2.260;2023-04-01T07:29:52;6.38;;;2.97;;
59308;SDS011;48433;53.016;-2.260;2023-04-01T07:51:21;9.02;;;2.83;;
59308;SDS011;48433;53.016;-2.260;2023-04-01T08:02:43;7.07;;;3.35;;
59308;SDS011;48433;53.016;-2.260;2023-04-01T08:08:49;6.80;;;2.58;;
59308;SDS011;48433;53.016;-2.260;2023-04-01T08:11:55;5.97;;;2.33;;
59308;SDS011;48433;53.016;-2.260;2023-04-01T08:15:12;5.32;;;2.38;;
59308;SDS011;48433;53.016;-2.260;2023-04-01T08:20:43;5.93;;;2.80;;
59308;SDS011;48433;53.016;-2.260;2023-04-01T08:23:27;6.40;;;2.35;;
59308;SDS011;48433;53.016;-2.260;2023-04-01T08:26:19;5.18;;;2.25;;
59308;SDS011;48433;53.016;-2.260;2023-04-01T08:31:37;7.25;;;2.58;;
59308;SDS011;48433;53.016;-2.260;2023-04-01T08:34:37;6.68;;;2.47;;
59308;SDS011;48433;53.016;-2.260;2023-04-01T08:37:23;6.10;;;2.45;;
59308;SDS011;48433;53.016;-2.260;2023-04-01T08:39:58;6.93;;;2.40;;
59308;SDS011;48433;53.016;-2.260;2023-04-01T08:43:00;5.10;;;2.63;;
59308;SDS011;48433;53.016;-2.260;2023-04-01T08:48:36;5.30;;;2.20;;
59308;SDS011;48433;53.016;-2.260;2023-04-01T09:00:33;3.92;;;1.92;;
59308;SDS011;48433;53.016;-2.260;2023-04-01T09:08:59;8.75;;;2.00;;
59308;SDS011;48433;53.016;-2.260;2023-04-01T09:20:27;4.43;;;1.65;;
59308;SDS011;48433;53.016;-2.260;2023-04-01T09:35:02;4.40;;;1.13;;
59308;SDS011;48433;53.016;-2.260;2023-04-01T09:48:51;5.55;;;1.60;;
59308;SDS011;48433;53.016;-2.260;2023-04-01T09:52:24;4.18;;;1.40;;
59308;SDS011;48433;53.016;-2.260;2023-04-01T10:09:25;3.17;;;1.20;;
59308;SDS011;48433;53.016;-2.260;2023-04-01T10:15:17;3.50;;;1.33;;
59308;SDS011;48433;53.016;-2.260;2023-04-01T10:21:12;3.13;;;1.25;;
59308;SDS011;48433;53.016;-2.260;2023-04-01T10:24:12;2.60;;;1.10;;
59308;SDS011;48433;53.016;-2.260;2023-04-01T10:56:39;3.97;;;1.30;;
59308;SDS011;48433;53.016;-2.260;2023-04-01T11:11:41;2.30;;;1.17;;
59308;SDS011;48433;53.016;-2.260;2023-04-01T11:35:23;3.20;;;1.25;;
59308;SDS011;48433;53.016;-2.260;2023-04-01T11:45:21;4.53;;;1.10;;
59308;SDS011;48433;53.016;-2.260;2023-04-01T11:50:55;3.20;;;1.33;;
59308;SDS011;48433;53.016;-2.260;2023-04-01T12:08:12;3.42;;;1.00;;
59308;SDS011;48433;53.016;-2.260;2023-04-01T12:21:51;5.97;;;1.50;;
59308;SDS011;48433;53.016;-2.260;2023-04-01T12:27:31;2.10;;;1.08;;
59308;SDS011;48433;53.016;-2.260;2023-04-01T12:36:05;2.88;;;1.08;;
59308;SDS011;48433;53.016;-2.260;2023-04-01T12:41:59;2.78;;;1.17;;
59308;SDS011;48433;53.016;-2.260;2023-04-01T12:55:55;3.58;;;1.20;;
59308;SDS011;48433;53.016;-2.260;2023-04-01T12:58:37;2.88;;;1.10;;
59308;SDS011;48433;53.016;-2.260;2023-04-01T13:01:29;1.92;;;0.80;;
59308;SDS011;48433;53.016;-2.260;2023-04-01T13:04:20;2.47;;;1.08;;
59308;SDS011;48433;53.016;-2.260;2023-04-01T13:09:31;4.63;;;1.00;;
59308;SDS011;48433;53.016;-2.260;2023-04-01T13:15:12;3.35;;;1.13;;
59308;SDS011;48433;53.016;-2.260;2023-04-01T13:20:33;4.30;;;0.98;;
59308;SDS011;48433;53.016;-2.260;2023-04-01T13:26:18;4.18;;;1.77;;
59308;SDS011;48433;53.016;-2.260;2023-04-01T13:28:52;4.43;;;1.60;;
59308;SDS011;48433;53.016;-2.260;2023-04-01T13:32:12;5.78;;;1.80;;
59308;SDS011;48433;53.016;-2.260;2023-04-01T13:37:32;5.15;;;1.80;;
59308;SDS011;48433;53.016;-2.260;2023-04-01T13:49:02;6.35;;;2.35;;
59308;SDS011;48433;53.016;-2.260;2023-04-01T13:57:48;4.65;;;1.40;;
59308;SDS011;48433;53.016;-2.260;2023-04-01T14:06:19;2.55;;;1.10;;
59308;SDS011;48433;53.016;-2.260;2023-04-01T14:15:07;2.55;;;1.00;;
59308;SDS011;48433;53.016;-2.260;2023-04-01T14:29:29;4.65;;;1.17;;
59308;SDS011;48433;53.016;-2.260;2023-04-01T14:38:08;4.80;;;1.33;;
59308;SDS011;48433;53.016;-2.260;2023-04-01T14:49:24;3.17;;;1.30;;
59308;SDS011;48433;53.016;-2.260;2023-04-01T14:52:04;3.90;;;1.20;;
59308;SDS011;48433;53.016;-2.260;2023-04-01T14:54:40;3.47;;;1.20;;
59308;SDS011;48433;53.016;-2.260;2023-04-01T14:57:15;3.53;;;1.15;;
59308;SDS011;48433;53.016;-2.260;2023-04-01T14:59:52;2.65;;;1.00;;
59308;SDS011;48433;53.016;-2.260;2023-04-01T15:02:36;1.67;;;0.82;;
59308;SDS011;48433;53.016;-2.260;2023-04-01T15:05:27;10.18;;;1.52;;
59308;SDS011;48433;53.016;-2.260;2023-04-01T15:08:23;6.07;;;1.00;;
59308;SDS011;48433;53.016;-2.260;2023-04-01T15:11:14;7.53;;;1.20;;
59308;SDS011;48433;53.016;-2.260;2023-04-01T15:30:15;3.17;;;1.40;;
59308;SDS011;48433;53.016;-2.260;2023-04-01T15:47:32;3.28;;;1.20;;
59308;SDS011;48433;53.016;-2.260;2023-04-01T16:04:06;5.93;;;2.25;;
59308;SDS011;48433;53.016;-2.260;2023-04-01T16:07:23;6.88;;;2.08;;
59308;SDS011;48433;53.016;-2.260;2023-04-01T16:09:59;5.30;;;2.58;;
59308;SDS011;48433;53.016;-2.260;2023-04-01T16:20:44;3.72;;;1.70;;
59308;SDS011;48433;53.016;-2.260;2023-04-01T16:31:34;5.93;;;2.15;;
59308;SDS011;48433;53.016;-2.260;2023-04-01T16:34:31;7.55;;;1.85;;
59308;SDS011;48433;53.016;-2.260;2023-04-01T16:37:11;3.35;;;1.50;;
59308;SDS011;48433;53.016;-2.260;2023-04-01T16:45:51;3.35;;;1.58;;
59308;SDS011;48433;53.016;-2.260;2023-04-01T16:48:45;3.30;;;1.40;;
59308;SDS011;48433;53.016;-2.260;2023-04-01T16:51:36;5.28;;;1.70;;
59308;SDS011;48433;53.016;-2.260;2023-04-01T16:57:23;3.38;;;1.70;;
59308;SDS011;48433;53.016;-2.260;2023-04-01T17:00:10;3.70;;;1.42;;
59308;SDS011;48433;53.016;-2.260;2023-04-01T17:03:20;4.50;;;1.73;;
59308;SDS011;48433;53.016;-2.260;2023-04-01T17:09:02;4.18;;;1.60;;
59308;SDS011;48433;53.016;-2.260;2023-04-01T17:12:10;5.55;;;2.10;;
59308;SDS011;48433;53.016;-2.260;2023-04-01T17:14:54;4.35;;;1.98;;
59308;SDS011;48433;53.016;-2.260;2023-04-01T17:20:46;3.28;;;1.40;;
59308;SDS011;48433;53.016;-2.260;2023-04-01T17:37:45;6.57;;;2.60;;
59308;SDS011;48433;53.016;-2.260;2023-04-01T18:01:19;6.07;;;2.40;;
59308;SDS011;48433;53.016;-2.260;2023-04-01T18:06:29;5.22;;;2.45;;
59308;SDS011;48433;53.016;-2.260;2023-04-01T18:15:20;11.18;;;3.42;;
59308;SDS011;48433;53.016;-2.260;2023-04-01T18:18:00;7.38;;;2.60;;
59308;SDS011;48433;53.016;-2.260;2023-04-01T18:26:08;21.75;;;12.50;;
59308;SDS011;48433;53.016;-2.260;2023-04-01T18:28:50;19.85;;;16.25;;
59308;SDS011;48433;53.016;-2.260;2023-04-01T18:31:24;9.60;;;7.30;;
59308;SDS011;48433;53.016;-2.260;2023-04-01T18:34:02;7.40;;;4.18;;
59308;SDS011;48433;53.016;-2.260;2023-04-01T18:36:51;7.55;;;3.50;;
59308;SDS011;48433;53.016;-2.260;2023-04-01T18:39:38;10.45;;;6.60;;
59308;SDS011;48433;53.016;-2.260;2023-04-01T18:44:50;8.38;;;4.43;;
59308;SDS011;48433;53.016;-2.260;2023-04-01T18:47:38;8.15;;;3.22;;
59308;SDS011;48433;53.016;-2.260;2023-04-01T18:50:22;10.00;;;3.88;;
59308;SDS011;48433;53.016;-2.260;2023-04-01T18:53:17;11.05;;;5.72;;
59308;SDS011;48433;53.016;-2.260;2023-04-01T18:55:57;8.80;;;4.68;;
59308;SDS011;48433;53.016;-2.260;2023-04-01T19:01:47;7.32;;;3.83;;
59308;SDS011;48433;53.016;-2.260;2023-04-01T19:07:47;11.88;;;6.88;;
59308;SDS011;48433;53.016;-2.260;2023-04-01T19:10:31;45.22;;;24.00;;
59308;SDS011;48433;53.016;-2.260;2023-04-01T19:18:45;37.45;;;18.88;;
59308;SDS011;48433;53.016;-2.260;2023-04-01T19:40:47;10.15;;;5.00;;
59308;SDS011;48433;53.016;-2.260;2023-04-01T19:43:49;9.70;;;5.47;;
59308;SDS011;48433;53.016;-2.260;2023-04-01T19:47:20;15.00;;;5.00;;
59308;SDS011;48433;53.016;-2.260;2023-04-01T19:49:40;10.95;;;4.28;;
59308;SDS011;48433;53.016;-2.260;2023-04-01T19:52:20;12.15;;;4.75;;
59308;SDS011;48433;53.016;-2.260;2023-04-01T20:00:44;8.93;;;3.55;;
59308;SDS011;48433;53.016;-2.260;2023-04-01T20:12:00;12.27;;;4.35;;
59308;SDS011;48433;53.016;-2.260;2023-04-01T20:14:34;11.57;;;4.13;;
59308;SDS011;48433;53.016;-2.260;2023-04-01T20:19:41;8.63;;;4.20;;
59308;SDS011;48433;53.016;-2.260;2023-04-01T20:28:02;12.68;;;5.10;;
59308;SDS011;48433;53.016;-2.260;2023-04-01T20:33:44;13.20;;;4.95;;
59308;SDS011;48433;53.016;-2.260;2023-04-01T20:44:36;9.75;;;4.13;;
59308;SDS011;48433;53.016;-2.260;2023-04-01T20:50:28;12.70;;;5.88;;
59308;SDS011;48433;53.016;-2.260;2023-04-01T21:21:50;10.75;;;4.43;;
59308;SDS011;48433;53.016;-2.260;2023-04-01T21:24:46;11.73;;;5.78;;
59308;SDS011;48433;53.016;-2.260;2023-04-01T21:27:28;13.75;;;5.25;;
59308;SDS011;48433;53.016;-2.260;2023-04-01T21:30:29;8.45;;;4.30;;
59308;SDS011;48433;53.016;-2.260;2023-04-01T21:33:16;10.43;;;4.03;;
59308;SDS011;48433;53.016;-2.260;2023-04-01T21:47:39;9.90;;;4.18;;
59308;SDS011;48433;53.016;-2.260;2023-04-01T21:50:50;8.23;;;4.07;;
59308;SDS011;48433;53.016;-2.260;2023-04-01T22:07:27;8.38;;;3.97;;
59308;SDS011;48433;53.016;-2.260;2023-04-01T22:10:24;8.90;;;3.95;;
59308;SDS011;48433;53.016;-2.260;2023-04-01T22:13:23;8.07;;;3.10;;
59308;SDS011;48433;53.016;-2.260;2023-04-01T22:18:33;5.93;;;3.08;;
59308;SDS011;48433;53.016;-2.260;2023-04-01T22:21:13;5.13;;;2.47;;
59308;SDS011;48433;53.016;-2.260;2023-04-01T22:23:45;7.13;;;3.05;;
59308;SDS011;48433;53.016;-2.260;2023-04-01T22:26:16;10.18;;;3.70;;
59308;SDS011;48433;53.016;-2.260;2023-04-01T22:29:01;8.43;;;3.17;;
59308;SDS011;48433;53.016;-2.260;2023-04-01T22:31:33;7.97;;;4.25;;
59308;SDS011;48433;53.016;-2.260;2023-04-01T22:39:51;10.63;;;3.90;;
59308;SDS011;48433;53.016;-2.260;2023-04-01T22:47:45;8.23;;;4.05;;
59308;SDS011;48433;53.016;-2.260;2023-04-01T22:56:23;7.95;;;4.00;;
59308;SDS011;48433;53.016;-2.260;2023-04-01T23:02:14;14.20;;;9.40;;
59308;SDS011;48433;53.016;-2.260;2023-04-01T23:04:47;12.68;;;8.68;;
59308;SDS011;48433;53.016;-2.260;2023-04-01T23:10:42;9.38;;;4.97;;
59308;SDS011;48433;53.016;-2.260;2023-04-01T23:13:24;8.82;;;4.20;;
59308;SDS011;48433;53.016;-2.260;2023-04-01T23:15:59;9.75;;;4.13;;
59308;SDS011;48433;53.016;-2.260;2023-04-01T23:18:27;10.52;;;5.03;;
59308;SDS011;48433;53.016;-2.260;2023-04-01T23:21:11;8.27;;;3.75;;
59308;SDS011;48433;53.016;-2.260;2023-04-01T23:26:50;5.22;;;2.70;;
59308;SDS011;48433;53.016;-2.260;2023-04-01T23:29:19;7.97;;;3.60;;
59308;SDS011;48433;53.016;-2.260;2023-04-01T23:32:13;7.65;;;3.05;;
59308;SDS011;48433;53.016;-2.260;2023-04-01T23:34:48;5.88;;;2.72;;
59308;SDS011;48433;53.016;-2.260;2023-04-01T23:37:22;6.40;;;2.92;;
59308;SDS011;48433;53.016;-2.260;2023-04-01T23:39:53;6.53;;;3.35;;
59308;SDS011;48433;53.016;-2.260;2023-04-01T23:42:26;7.55;;;3.72;;
59308;SDS011;48433;53.016;-2.260;2023-04-01T23:44:58;6.72;;;3.03;;
59308;SDS011;48433;53.016;-2.260;2023-04-01T23:50:01;6.30;;;2.72;;
59308;SDS011;48433;53.016;-2.260;2023-04-01T23:52:40;6.65;;;2.60;;
59308;SDS011;48433;53.016;-2.260;2023-04-01T23:57:38;5.60;;;2.72;;
